createdAt,value
2018-07-15T00:01:42.745Z,69.72
2018-07-15T00:04:08.297Z,70.31
2018-07-15T00:06:33.835Z,71.63
2018-07-15T00:08:59.385Z,72.34
2018-07-15T00:11:24.945Z,73.00
2018-07-15T00:13:50.487Z,71.26
2018-07-15T00:16:16.026Z,72.90
2018-07-15T00:18:41.578Z,72.07
2018-07-15T00:21:07.109Z,73.89
2018-07-15T00:23:32.640Z,72.87
2018-07-15T00:25:58.172Z,73.43
2018-07-15T00:28:23.744Z,71.71
2018-07-15T00:30:49.300Z,72.17
2018-07-15T00:33:14.847Z,72.20
2018-07-15T00:35:40.390Z,72.90
2018-07-15T00:38:05.927Z,73.81
2018-07-15T00:40:31.540Z,73.86
2018-07-15T00:42:57.080Z,73.24
2018-07-15T00:45:22.670Z,74.19
2018-07-15T00:47:48.217Z,74.87
2018-07-15T00:50:13.766Z,75.54
2018-07-15T00:52:39.306Z,75.39
2018-07-15T00:55:04.857Z,75.86
2018-07-15T00:57:30.395Z,75.48
2018-07-15T00:59:55.947Z,75.10
2018-07-15T01:02:21.493Z,74.87
2018-07-15T01:04:47.036Z,73.39
2018-07-15T01:07:12.572Z,73.75
2018-07-15T01:09:38.124Z,76.13
2018-07-15T01:12:03.679Z,76.76
2018-07-15T01:14:29.224Z,76.57
2018-07-15T01:16:54.801Z,75.84
2018-07-15T01:19:20.335Z,77.08
2018-07-15T01:21:45.870Z,78.23
2018-07-15T01:24:11.418Z,78.27
2018-07-15T01:26:36.965Z,76.75
2018-07-15T01:29:02.526Z,74.88
2018-07-15T01:31:28.064Z,76.96
2018-07-15T01:33:53.620Z,75.16
2018-07-15T01:36:19.176Z,75.74
2018-07-15T01:38:44.716Z,77.04
2018-07-15T01:41:10.299Z,75.97
2018-07-15T01:43:35.840Z,77.30
2018-07-15T01:46:01.381Z,77.34
2018-07-15T01:48:26.944Z,76.59
2018-07-15T01:50:52.485Z,78.22
2018-07-15T01:53:18.026Z,76.76
2018-07-15T01:55:43.572Z,77.59
2018-07-15T01:58:09.104Z,75.51
2018-07-15T02:00:34.647Z,77.08
2018-07-15T02:03:00.216Z,75.82
2018-07-15T02:05:25.752Z,77.24
2018-07-15T02:07:51.291Z,77.28
2018-07-15T02:10:16.885Z,77.13
2018-07-15T02:12:42.432Z,76.95
2018-07-15T02:15:07.976Z,78.68
2018-07-15T02:17:33.516Z,76.60
2018-07-15T02:19:59.064Z,78.47
2018-07-15T02:22:24.608Z,77.77
2018-07-15T02:24:50.144Z,77.50
2018-07-15T02:27:15.714Z,78.54
2018-07-15T02:29:41.269Z,77.63
2018-07-15T02:32:06.809Z,78.68
2018-07-15T02:34:32.346Z,80.05
2018-07-15T02:36:57.882Z,77.50
2018-07-15T02:39:23.421Z,77.88
2018-07-15T02:41:48.956Z,78.44
2018-07-15T02:44:14.503Z,77.05
2018-07-15T02:46:40.041Z,77.58
2018-07-15T02:49:05.592Z,78.22
2018-07-15T02:51:31.124Z,78.90
2018-07-15T02:53:56.668Z,77.50
2018-07-15T02:56:22.209Z,78.87
2018-07-15T02:58:47.753Z,78.89
2018-07-15T03:01:13.295Z,76.71
2018-07-15T03:03:38.856Z,79.55
2018-07-15T03:06:04.409Z,79.12
2018-07-15T03:08:29.949Z,77.69
2018-07-15T03:10:55.486Z,77.28
2018-07-15T03:13:21.036Z,77.63
2018-07-15T03:15:46.576Z,79.14
2018-07-15T03:18:12.113Z,79.08
2018-07-15T03:20:37.712Z,79.90
2018-07-15T03:23:03.259Z,80.20
2018-07-15T03:25:28.797Z,80.29
2018-07-15T03:27:54.345Z,81.06
2018-07-15T03:30:19.883Z,80.44
2018-07-15T03:32:45.436Z,80.08
2018-07-15T03:35:10.968Z,78.91
2018-07-15T03:37:36.524Z,79.52
2018-07-15T03:40:02.066Z,79.61
2018-07-15T03:42:27.635Z,78.77
2018-07-15T03:44:53.173Z,81.78
2018-07-15T03:47:18.706Z,80.32
2018-07-15T03:49:44.246Z,81.82
2018-07-15T03:52:09.779Z,80.62
2018-07-15T03:54:35.348Z,80.05
2018-07-15T03:57:00.885Z,80.79
2018-07-15T03:59:26.421Z,81.32
2018-07-15T04:01:51.966Z,80.43
2018-07-15T04:04:17.522Z,80.76
2018-07-15T04:06:43.089Z,81.10
2018-07-15T04:09:08.629Z,81.00
2018-07-15T04:11:34.165Z,81.77
2018-07-15T04:13:59.700Z,82.71
2018-07-15T04:16:25.239Z,81.40
2018-07-15T04:18:50.796Z,79.85
2018-07-15T04:21:16.332Z,80.49
2018-07-15T04:23:41.881Z,82.01
2018-07-15T04:26:07.412Z,80.67
2018-07-15T04:28:32.949Z,79.86
2018-07-15T04:30:58.484Z,80.15
2018-07-15T04:33:24.034Z,80.82
2018-07-15T04:35:49.587Z,79.83
2018-07-15T04:38:15.152Z,79.46
2018-07-15T04:40:40.703Z,80.26
2018-07-15T04:43:06.239Z,80.67
2018-07-15T04:45:31.793Z,79.58
2018-07-15T04:47:57.332Z,81.07
2018-07-15T04:50:22.883Z,80.42
2018-07-15T04:52:49.016Z,82.12
2018-07-15T04:55:14.561Z,81.84
2018-07-15T04:57:40.112Z,80.71
2018-07-15T05:00:05.667Z,80.89
2018-07-15T05:02:31.217Z,80.62
2018-07-15T05:04:56.783Z,78.62
2018-07-15T05:07:22.328Z,80.39
2018-07-15T05:09:51.500Z,81.77
2018-07-15T05:12:17.315Z,79.73
2018-07-15T05:14:43.260Z,80.19
2018-07-15T05:17:09.562Z,81.17
2018-07-15T05:19:35.392Z,78.81
2018-07-15T05:22:01.269Z,81.29
2018-07-15T05:24:27.857Z,78.94
2018-07-15T05:26:53.870Z,79.31
2018-07-15T05:29:19.865Z,79.79
2018-07-15T05:31:45.703Z,79.26
2018-07-15T05:34:11.236Z,80.82
2018-07-15T05:36:36.785Z,77.94
2018-07-15T05:39:02.325Z,78.25
2018-07-15T05:41:27.872Z,80.39
2018-07-15T05:43:53.426Z,81.72
2018-07-15T05:46:18.981Z,81.33
2018-07-15T05:48:44.540Z,78.18
2018-07-15T05:51:13.458Z,78.88
2018-07-15T05:53:39.646Z,78.57
2018-07-15T05:56:05.940Z,80.01
2018-07-15T05:58:32.044Z,81.70
2018-07-15T06:00:57.740Z,81.55
2018-07-15T06:03:24.829Z,78.29
2018-07-15T06:05:50.750Z,79.06
2018-07-15T06:08:20.931Z,77.39
2018-07-15T06:15:51.038Z,78.26
2018-07-15T06:18:16.661Z,78.34
2018-07-15T06:20:42.283Z,78.11
2018-07-15T06:23:07.846Z,76.85
2018-07-15T06:25:33.397Z,74.86
2018-07-15T06:27:58.956Z,76.02
2018-07-15T06:30:24.541Z,76.46
2018-07-15T06:32:50.097Z,74.50
2018-07-15T06:35:15.658Z,76.85
2018-07-15T06:37:41.213Z,73.37
2018-07-15T06:40:07.661Z,73.06
2018-07-15T06:42:33.301Z,73.49
2018-07-15T06:44:58.857Z,73.65
2018-07-15T06:47:27.222Z,74.14
2018-07-15T06:49:52.976Z,71.86
2018-07-15T06:52:18.515Z,72.77
2018-07-15T06:54:44.059Z,71.90
2018-07-15T06:57:09.729Z,72.06
2018-07-15T06:59:35.605Z,71.04
2018-07-15T07:02:01.788Z,70.83
2018-07-15T07:04:29.325Z,68.97
2018-07-15T07:06:55.145Z,68.96
2018-07-15T07:09:21.242Z,70.31
2018-07-15T07:11:46.922Z,69.32
2018-07-15T07:14:12.546Z,68.96
2018-07-15T07:16:38.044Z,69.67
2018-07-15T07:19:03.596Z,67.11
2018-07-15T07:21:29.572Z,68.87
2018-07-15T07:23:55.842Z,67.21
2018-07-15T07:26:22.493Z,67.65
2018-07-15T07:28:48.571Z,65.43
2018-07-15T07:31:14.325Z,64.61
2018-07-15T07:33:39.943Z,65.09
2018-07-15T07:36:05.840Z,65.36
2018-07-15T07:38:32.032Z,64.52
2018-07-15T07:40:57.887Z,64.51
2018-07-15T07:43:23.420Z,63.17
2018-07-15T07:45:48.963Z,63.67
2018-07-15T07:48:14.524Z,61.75
2018-07-15T07:50:40.063Z,62.83
2018-07-15T07:53:05.596Z,62.34
2018-07-15T07:55:34.164Z,61.97
2018-07-15T07:58:03.383Z,60.05
2018-07-15T08:00:29.292Z,61.39
2018-07-15T08:02:54.844Z,60.19
2018-07-15T08:05:20.398Z,59.41
2018-07-15T08:07:46.179Z,59.50
2018-07-15T08:10:11.700Z,58.16
2018-07-15T08:12:37.246Z,58.57
2018-07-15T08:15:02.796Z,59.12
2018-07-15T08:17:28.364Z,57.44
2018-07-15T08:19:53.930Z,57.21
2018-07-15T08:22:19.472Z,57.04
2018-07-15T08:24:45.989Z,57.58
2018-07-15T08:27:11.538Z,57.50
2018-07-15T08:29:37.216Z,57.32
2018-07-15T08:32:04.482Z,57.75
2018-07-15T08:34:33.617Z,56.44
2018-07-15T08:36:59.527Z,54.97
2018-07-15T08:39:25.118Z,53.66
2018-07-15T08:41:50.656Z,53.92
2018-07-15T08:44:16.305Z,55.52
2018-07-15T08:46:41.878Z,54.96
2018-07-15T08:49:07.416Z,55.39
2018-07-15T08:51:32.964Z,53.77
2018-07-15T08:53:58.506Z,53.99
2018-07-15T08:56:24.167Z,52.24
2018-07-15T08:58:49.705Z,53.59
2018-07-15T09:01:15.245Z,52.77
2018-07-15T09:03:40.805Z,52.83
2018-07-15T09:06:06.340Z,52.37
2018-07-15T09:08:31.903Z,53.36
2018-07-15T09:10:57.475Z,51.02
2018-07-15T09:13:23.007Z,51.15
2018-07-15T09:15:48.555Z,50.04
2018-07-15T09:18:14.104Z,50.29
2018-07-15T09:20:39.765Z,49.26
2018-07-15T09:23:05.663Z,49.59
2018-07-15T09:25:31.225Z,49.25
2018-07-15T09:27:56.855Z,49.87
2018-07-15T09:30:22.486Z,49.40
2018-07-15T09:32:48.052Z,48.26
2018-07-15T09:35:13.597Z,46.23
2018-07-15T09:37:39.166Z,48.65
2018-07-15T09:40:04.740Z,48.95
2018-07-15T09:42:30.302Z,44.93
2018-07-15T09:44:55.852Z,46.95
2018-07-15T09:47:21.402Z,45.99
2018-07-15T09:49:46.951Z,44.15
2018-07-15T09:52:12.634Z,44.07
2018-07-15T09:54:38.196Z,43.59
2018-07-15T09:57:03.740Z,45.62
2018-07-15T09:59:29.292Z,45.06
2018-07-15T10:01:54.827Z,46.57
2018-07-15T10:04:20.392Z,45.58
2018-07-15T10:06:45.941Z,45.62
2018-07-15T10:09:11.484Z,45.65
2018-07-15T10:11:37.069Z,43.62
2018-07-15T10:14:02.612Z,44.52
2018-07-15T10:16:28.158Z,44.41
2018-07-15T10:18:53.778Z,42.71
2018-07-15T10:21:19.268Z,42.10
2018-07-15T10:23:44.801Z,40.94
2018-07-15T10:26:10.378Z,42.45
2018-07-15T10:28:35.915Z,42.17
2018-07-15T10:31:01.460Z,42.11
2018-07-15T10:33:27.020Z,42.54
2018-07-15T10:35:52.600Z,41.96
2018-07-15T10:38:18.181Z,41.37
2018-07-15T10:40:43.728Z,40.27
2018-07-15T10:43:09.278Z,40.47
2018-07-15T10:45:34.833Z,40.00
2018-07-15T10:48:00.407Z,40.62
2018-07-15T10:50:26.268Z,40.08
2018-07-15T10:52:51.852Z,39.84
2018-07-15T10:55:17.385Z,39.58
2018-07-15T10:57:42.941Z,39.38
2018-07-15T11:00:08.559Z,39.42
2018-07-15T11:02:34.119Z,39.41
2018-07-15T11:04:59.693Z,39.65
2018-07-15T11:07:25.236Z,37.61
2018-07-15T11:09:50.780Z,38.95
2018-07-15T11:12:16.361Z,39.75
2018-07-15T11:14:41.955Z,36.99
2018-07-15T11:17:07.513Z,36.71
2018-07-15T11:19:33.061Z,37.44
2018-07-15T11:21:58.595Z,36.02
2018-07-15T11:24:24.188Z,35.84
2018-07-15T11:26:49.720Z,35.96
2018-07-15T11:29:15.277Z,35.61
2018-07-15T11:31:40.948Z,36.25
2018-07-15T11:34:06.509Z,35.69
2018-07-15T11:36:32.744Z,35.89
2018-07-15T11:38:58.335Z,36.15
2018-07-15T11:41:23.870Z,35.89
2018-07-15T11:43:49.427Z,33.37
2018-07-15T11:46:15.032Z,35.25
2018-07-15T11:48:40.583Z,33.03
2018-07-15T11:51:06.160Z,33.38
2018-07-15T11:53:31.706Z,31.85
2018-07-15T11:55:57.293Z,33.35
2018-07-15T11:58:22.875Z,31.31
2018-07-15T12:00:48.418Z,31.18
2018-07-15T12:03:13.968Z,30.02
2018-07-15T12:05:39.525Z,29.28
2018-07-15T12:08:05.088Z,28.23
2018-07-15T12:10:30.629Z,24.74
2018-07-15T12:12:56.221Z,25.88
2018-07-15T12:15:21.770Z,23.72
2018-07-15T12:17:47.316Z,24.31
2018-07-15T12:20:12.871Z,21.00
2018-07-15T12:22:38.403Z,20.12
2018-07-15T12:25:03.950Z,18.56
2018-07-15T12:27:29.499Z,18.80
2018-07-15T12:29:55.055Z,17.91
2018-07-15T12:32:20.604Z,16.85
2018-07-15T12:34:46.157Z,15.13
2018-07-15T12:37:11.723Z,15.70
2018-07-15T12:39:37.289Z,14.33
2018-07-15T12:42:02.833Z,16.01
2018-07-15T12:44:28.372Z,13.42
2018-07-15T12:46:53.924Z,12.80
2018-07-15T12:49:19.471Z,13.31
2018-07-15T12:51:45.039Z,10.68
2018-07-15T12:54:10.585Z,11.46
2018-07-15T12:56:36.128Z,10.70
2018-07-15T12:59:01.691Z,11.97
2018-07-15T13:01:27.241Z,10.55
2018-07-15T13:03:52.780Z,9.35
2018-07-15T13:06:18.336Z,10.43
2018-07-15T13:08:43.880Z,10.03
2018-07-15T13:11:09.465Z,9.30
2018-07-15T13:13:35.005Z,9.90
2018-07-15T13:16:00.558Z,8.63
2018-07-15T13:18:26.120Z,9.13
2018-07-15T13:20:51.688Z,8.40
2018-07-15T13:23:17.241Z,10.07
2018-07-15T13:25:42.792Z,8.44
2018-07-15T13:28:08.336Z,7.69
2018-07-15T13:30:33.882Z,8.76
2018-07-15T13:32:59.428Z,8.24
2018-07-15T13:35:25.006Z,6.31
2018-07-15T13:37:50.940Z,6.05
2018-07-15T13:40:17.744Z,5.84
2018-07-15T13:42:43.869Z,7.38
2018-07-15T13:45:09.794Z,6.78
2018-07-15T13:47:35.588Z,6.83
2018-07-15T13:50:01.147Z,5.05
2018-07-15T13:52:26.712Z,6.18
2018-07-15T13:54:52.258Z,5.78
2018-07-15T13:57:17.801Z,5.08
2018-07-15T13:59:43.352Z,5.61
2018-07-15T14:02:08.884Z,5.07
2018-07-15T14:04:34.439Z,5.06
2018-07-15T14:06:59.978Z,5.32
2018-07-15T14:09:25.525Z,3.77
2018-07-15T14:11:51.088Z,4.65
2018-07-15T14:14:16.637Z,3.88
2018-07-15T14:16:42.193Z,4.76
2018-07-15T14:19:07.736Z,4.37
2018-07-15T14:21:33.343Z,4.58
2018-07-15T14:23:58.853Z,3.84
2018-07-15T14:26:24.393Z,3.71
2018-07-15T14:28:49.941Z,3.13
2018-07-15T14:31:15.482Z,3.15
2018-07-15T14:33:41.046Z,4.50
2018-07-15T14:36:06.583Z,4.12
2018-07-15T14:38:32.129Z,2.92
2018-07-15T14:40:57.672Z,3.51
2018-07-15T14:43:23.219Z,4.33
2018-07-15T14:45:48.784Z,4.66
2018-07-15T14:48:14.331Z,3.77
2018-07-15T14:50:39.867Z,3.87
2018-07-15T14:53:05.426Z,4.33
2018-07-15T14:55:31.014Z,4.69
2018-07-15T14:57:56.560Z,4.72
2018-07-15T15:00:22.096Z,4.30
2018-07-15T15:02:47.643Z,5.69
2018-07-15T15:05:13.189Z,4.71
2018-07-15T15:07:38.776Z,4.58
2018-07-15T15:10:04.316Z,4.49
2018-07-15T15:12:29.858Z,4.34
2018-07-15T15:14:55.423Z,4.95
2018-07-15T15:17:20.976Z,4.87
2018-07-15T15:19:46.537Z,5.44
2018-07-15T15:22:12.077Z,5.63
2018-07-15T15:24:37.621Z,5.83
2018-07-15T15:27:03.175Z,5.11
2018-07-15T15:29:28.747Z,5.21
2018-07-15T15:31:54.293Z,5.25
2018-07-15T15:34:19.850Z,5.89
2018-07-15T15:36:45.410Z,6.05
2018-07-15T15:39:10.967Z,5.20
2018-07-15T15:41:36.522Z,5.93
2018-07-15T15:44:02.066Z,5.52
2018-07-15T15:46:27.645Z,5.07
2018-07-15T15:48:53.224Z,6.08
2018-07-15T15:51:18.765Z,5.87
2018-07-15T15:53:44.311Z,5.37
2018-07-15T15:56:09.845Z,5.58
2018-07-15T15:58:35.396Z,5.57
2018-07-15T16:01:00.949Z,6.12
2018-07-15T16:03:26.534Z,5.78
2018-07-15T16:05:52.073Z,6.06
2018-07-15T16:08:17.628Z,5.83
2018-07-15T16:10:43.258Z,6.18
2018-07-15T16:13:08.800Z,6.22
2018-07-15T16:15:34.403Z,7.20
2018-07-15T16:17:59.944Z,6.81
2018-07-15T16:20:25.528Z,6.40
2018-07-15T16:22:51.067Z,6.57
2018-07-15T16:25:16.617Z,6.90
2018-07-15T16:27:42.178Z,7.01
2018-07-15T16:30:07.725Z,7.05
2018-07-15T16:32:33.353Z,6.96
2018-07-15T16:34:58.908Z,6.29
2018-07-15T16:37:24.483Z,7.17
2018-07-15T16:39:50.027Z,6.96
2018-07-15T16:42:15.590Z,7.63
2018-07-15T16:44:41.155Z,7.51
2018-07-15T16:47:06.696Z,7.36
2018-07-15T16:49:32.251Z,7.01
2018-07-15T16:51:57.784Z,7.29
2018-07-15T16:54:23.361Z,6.97
2018-07-15T16:56:48.909Z,7.30
2018-07-15T16:59:14.465Z,7.74
2018-07-15T17:01:40.025Z,7.66
2018-07-15T17:04:05.576Z,7.86
2018-07-15T17:06:31.125Z,7.33
2018-07-15T17:08:56.693Z,8.03
2018-07-15T17:11:22.245Z,8.63
2018-07-15T17:13:47.793Z,8.70
2018-07-15T17:16:13.348Z,9.62
2018-07-15T17:18:38.895Z,9.24
2018-07-15T17:21:04.468Z,9.75
2018-07-15T17:23:30.010Z,10.03
2018-07-15T17:25:55.580Z,10.66
2018-07-15T17:28:21.143Z,9.41
2018-07-15T17:30:47.260Z,10.01
2018-07-15T17:33:13.721Z,10.68
2018-07-15T17:35:40.457Z,10.71
2018-07-15T17:38:06.196Z,11.39
2018-07-15T17:40:32.469Z,11.18
2018-07-15T17:42:58.506Z,10.88
2018-07-15T17:45:24.174Z,12.11
2018-07-15T17:47:49.719Z,11.08
2018-07-15T17:50:15.909Z,12.16
2018-07-15T17:52:42.832Z,11.37
2018-07-15T17:55:09.461Z,10.94
2018-07-15T17:57:35.501Z,11.20
2018-07-15T18:00:01.714Z,11.51
2018-07-15T18:02:29.176Z,11.34
2018-07-15T18:04:55.147Z,12.62
2018-07-15T18:07:21.353Z,12.45
2018-07-15T18:09:47.973Z,13.24
2018-07-15T18:12:15.110Z,12.31
2018-07-15T18:14:40.661Z,13.53
2018-07-15T18:17:06.197Z,12.58
2018-07-15T18:19:31.757Z,13.07
2018-07-15T18:21:57.296Z,13.05
2018-07-15T18:24:23.051Z,14.23
2018-07-15T18:26:48.600Z,13.69
2018-07-15T18:29:14.151Z,14.17
2018-07-15T18:31:39.713Z,14.96
2018-07-15T18:34:05.280Z,15.19
2018-07-15T18:36:31.275Z,15.82
2018-07-15T18:38:56.823Z,16.46
2018-07-15T18:41:22.393Z,17.20
2018-07-15T18:43:47.941Z,17.45
2018-07-15T18:46:13.541Z,17.16
2018-07-15T18:48:39.124Z,19.62
2018-07-15T18:51:04.701Z,19.24
2018-07-15T18:53:30.281Z,21.91
2018-07-15T18:55:55.848Z,21.74
2018-07-15T18:58:21.429Z,23.19
2018-07-15T19:00:46.984Z,25.25
2018-07-15T19:03:12.589Z,26.71
2018-07-15T19:05:38.169Z,28.43
2018-07-15T19:08:03.752Z,27.68
2018-07-15T19:10:30.041Z,28.00
2018-07-15T19:12:55.671Z,28.97
2018-07-15T19:15:21.273Z,29.06
2018-07-15T19:17:46.825Z,30.28
2018-07-15T19:20:12.393Z,33.90
2018-07-15T19:22:37.954Z,34.70
2018-07-15T19:25:03.536Z,36.66
2018-07-15T19:27:29.160Z,34.41
2018-07-15T19:29:55.042Z,35.82
2018-07-15T19:32:20.681Z,36.43
2018-07-15T19:34:46.227Z,36.59
2018-07-15T19:37:11.813Z,40.31
2018-07-15T19:39:37.368Z,38.55
2018-07-15T19:42:02.928Z,40.60
2018-07-15T19:44:28.488Z,39.28
2018-07-15T19:46:54.052Z,39.55
2018-07-15T19:49:19.631Z,41.85
2018-07-15T19:51:45.189Z,44.02
2018-07-15T19:54:10.758Z,43.26
2018-07-15T19:56:36.314Z,43.62
2018-07-15T19:59:01.869Z,42.55
2018-07-15T20:01:27.459Z,43.16
2018-07-15T20:03:52.976Z,44.16
2018-07-15T20:06:18.548Z,43.67
2018-07-15T20:08:44.085Z,44.72
2018-07-15T20:11:09.636Z,44.13
2018-07-15T20:13:35.228Z,43.90
2018-07-15T20:16:00.784Z,46.71
2018-07-15T20:18:26.326Z,44.45
2018-07-15T20:20:51.899Z,45.00
2018-07-15T20:23:17.477Z,49.69
2018-07-15T20:25:43.036Z,46.20
2018-07-15T20:28:08.593Z,47.09
2018-07-15T20:30:37.308Z,49.70
2018-07-15T20:33:03.053Z,49.15
2018-07-15T20:35:28.605Z,47.67
2018-07-15T20:37:54.163Z,48.89
2018-07-15T20:40:20.173Z,48.81
2018-07-15T20:42:47.626Z,46.86
2018-07-15T20:45:13.380Z,47.17
2018-07-15T20:47:38.947Z,47.64
2018-07-15T20:50:04.481Z,46.76
2018-07-15T20:52:30.099Z,48.54
2018-07-15T20:55:00.290Z,47.67
2018-07-15T20:57:30.338Z,48.99
2018-07-15T20:59:59.621Z,49.34
2018-07-15T21:02:25.595Z,48.70
2018-07-15T21:04:51.193Z,49.47
2018-07-15T21:07:16.741Z,47.94
2018-07-15T21:09:42.362Z,49.98
2018-07-15T21:12:08.106Z,50.44
2018-07-15T21:14:33.711Z,52.94
2018-07-15T21:16:59.252Z,51.29
2018-07-15T21:19:24.815Z,51.97
2018-07-15T21:21:50.372Z,49.24
2018-07-15T21:24:15.925Z,51.77
2018-07-15T21:26:41.475Z,50.84
2018-07-15T21:29:07.025Z,55.66
2018-07-15T21:31:32.584Z,52.89
2018-07-15T21:33:58.141Z,52.95
2018-07-15T21:36:23.676Z,54.34
2018-07-15T21:38:49.231Z,54.62
2018-07-15T21:41:14.767Z,55.37
2018-07-15T21:43:40.300Z,54.52
2018-07-15T21:46:05.836Z,55.47
2018-07-15T21:48:31.376Z,56.64
2018-07-15T21:50:56.929Z,58.44
2018-07-15T21:53:22.471Z,55.78
2018-07-15T21:55:48.009Z,57.35
2018-07-15T21:58:13.557Z,58.38
2018-07-15T22:00:40.201Z,58.13
2018-07-15T22:03:05.736Z,58.38
2018-07-15T22:05:31.279Z,57.98
2018-07-15T22:07:56.825Z,59.88
2018-07-15T22:10:22.368Z,58.63
2018-07-15T22:12:47.925Z,59.64
2018-07-15T22:15:13.468Z,59.10
2018-07-15T22:17:39.023Z,61.32
2018-07-15T22:20:04.564Z,60.86
2018-07-15T22:22:30.129Z,62.20
2018-07-15T22:24:55.669Z,60.57
2018-07-15T22:27:21.208Z,61.88
2018-07-15T22:29:46.755Z,60.85
2018-07-15T22:32:12.310Z,62.04
2018-07-15T22:34:37.877Z,60.76
2018-07-15T22:37:03.414Z,60.94
2018-07-15T22:39:28.956Z,62.05
2018-07-15T22:41:54.493Z,64.22
2018-07-15T22:44:20.056Z,60.24
2018-07-15T22:46:45.591Z,61.11
2018-07-15T22:49:11.124Z,61.22
2018-07-15T22:51:36.652Z,63.16
2018-07-15T22:54:02.189Z,63.71
2018-07-15T22:56:27.744Z,63.66
2018-07-15T22:58:53.296Z,62.07
2018-07-15T23:01:18.828Z,63.04
2018-07-15T23:03:44.362Z,65.63
2018-07-15T23:06:09.908Z,64.12
2018-07-15T23:08:35.452Z,65.16
2018-07-15T23:11:00.993Z,66.13
2018-07-15T23:13:26.524Z,65.66
2018-07-15T23:15:52.064Z,67.52
2018-07-15T23:18:17.617Z,67.49
2018-07-15T23:20:43.165Z,67.08
2018-07-15T23:23:08.720Z,64.67
2018-07-15T23:25:34.262Z,66.67
2018-07-15T23:27:59.800Z,67.65
2018-07-15T23:30:25.344Z,66.69
2018-07-15T23:32:50.901Z,66.29
2018-07-15T23:35:16.436Z,68.22
2018-07-15T23:37:42.012Z,68.24
2018-07-15T23:40:07.552Z,66.01
2018-07-15T23:42:33.094Z,67.03
2018-07-15T23:44:58.658Z,66.43
2018-07-15T23:47:24.196Z,66.24
2018-07-15T23:49:49.730Z,68.64
2018-07-15T23:52:15.285Z,71.18
2018-07-15T23:54:40.820Z,71.75
2018-07-15T23:57:06.364Z,68.99
2018-07-15T23:59:31.920Z,70.27
